Time;durP1;ratioP1;P1;durP2;ratioP2;P2;SDS_P1;SDS_P2;PMS_P1;PMS_P2;Temp;Humidity;BMP_temperature;BMP_pressure;BME280_temperature;BME280_humidity;BME280_pressure;Samples;Min_cycle;Max_cycle;Signal;HPM_P1;HPM_P2
2023/03/28 00:00:55;;;;;;;;;2.00;2.00;;;;;9.90;70.03;102475.03;4977683;28;45288;-81
2023/03/28 00:03:21;;;;;;;;;1.00;1.00;;;;;9.89;69.92;102464.44;4960793;28;45616;-80
2023/03/28 00:05:55;;;;;;;;;2.00;1.00;;;;;9.88;69.97;102466.19;4972461;28;46586;-80
2023/03/28 00:08:20;;;;;;;;;6.00;2.00;;;;;9.85;69.70;102468.69;4960534;28;45523;-80
2023/03/28 00:10:46;;;;;;;;;1.25;1.25;;;;;9.82;70.08;102471.22;4974139;28;45389;-81
2023/03/28 00:13:12;;;;;;;;;5.00;1.75;;;;;9.80;69.94;102477.25;4974126;28;54355;-80
2023/03/28 00:15:38;;;;;;;;;2.00;2.00;;;;;9.76;70.29;102478.88;4943748;28;48861;-80
2023/03/28 00:18:04;;;;;;;;;3.50;1.00;;;;;9.75;69.35;102477.09;4974858;28;45352;-81
2023/03/28 00:20:30;;;;;;;;;1.50;1.50;;;;;9.76;69.70;102480.63;4977350;28;45384;-82
2023/03/28 00:22:56;;;;;;;;;3.00;1.50;;;;;9.74;69.76;102470.00;4954721;28;45416;-80
2023/03/28 00:25:22;;;;;;;;;1.00;1.00;;;;;9.74;69.79;102459.44;4940624;28;46768;-81
2023/03/28 00:27:48;;;;;;;;;1.00;1.00;;;;;9.73;69.64;102473.47;4960618;28;65897;-81
2023/03/28 00:30:13;;;;;;;;;2.25;1.25;;;;;9.68;69.82;102457.47;4959144;28;45578;-80
2023/03/28 00:32:39;;;;;;;;;2.75;1.00;;;;;9.67;69.53;102462.69;4976596;28;45551;-81
2023/03/28 00:35:05;;;;;;;;;1.50;1.00;;;;;9.65;69.08;102461.72;4976875;28;45679;-80
2023/03/28 00:37:30;;;;;;;;;1.00;1.00;;;;;9.67;69.22;102460.03;4956893;28;45489;-80
2023/03/28 00:39:56;;;;;;;;;1.25;1.25;;;;;9.67;69.44;102462.69;4954251;28;45315;-80
2023/03/28 00:42:22;;;;;;;;;1.75;1.00;;;;;9.66;69.01;102472.31;4953408;28;45465;-80
2023/03/28 00:44:50;;;;;;;;;2.25;2.25;;;;;9.64;69.19;102459.91;4976281;28;45396;-80
2023/03/28 00:47:42;;;;;;;;;3.50;1.25;;;;;9.66;69.22;102467.06;4976651;28;45280;-80
2023/03/28 00:50:21;;;;;;;;;4.00;3.00;;;;;9.64;69.08;102475.72;4952951;28;45338;-80
2023/03/28 00:52:52;;;;;;;;;2.50;2.50;;;;;9.59;68.92;102470.28;4959965;28;45639;-80
2023/03/28 00:55:39;;;;;;;;;2.25;2.00;;;;;9.56;69.16;102464.88;4954629;28;46303;-80
2023/03/28 00:58:09;;;;;;;;;3.75;2.75;;;;;9.53;69.28;102467.38;4955536;28;45397;-81
2023/03/28 01:00:35;;;;;;;;;2.00;2.00;;;;;9.49;69.38;102476.03;4976636;28;45254;-80
2023/03/28 01:03:01;;;;;;;;;2.00;2.00;;;;;9.48;69.52;102471.59;4947950;28;45458;-80
2023/03/28 01:05:30;;;;;;;;;2.25;2.00;;;;;9.47;69.71;102469.75;4954430;28;47587;-80
2023/03/28 01:08:22;;;;;;;;;1.00;1.00;;;;;9.48;69.90;102473.28;4968980;28;45376;-81
2023/03/28 01:10:48;;;;;;;;;4.50;2.00;;;;;9.45;70.25;102469.69;4968877;28;45310;-80
2023/03/28 01:13:16;;;;;;;;;6.50;2.00;;;;;9.43;69.95;102470.50;4972549;28;45573;-80
2023/03/28 01:15:43;;;;;;;;;2.50;2.50;;;;;9.45;70.58;102458.25;4955651;28;45244;-79
2023/03/28 01:18:10;;;;;;;;;2.00;2.00;;;;;9.48;70.70;102468.03;4957613;28;45367;-80
2023/03/28 01:21:19;;;;;;;;;5.50;3.00;;;;;9.52;70.95;102460.31;4959337;28;45382;-80
2023/03/28 01:24:09;;;;;;;;;3.00;2.00;;;;;9.55;71.05;102460.44;4965882;28;45464;-80
2023/03/28 01:27:01;;;;;;;;;2.00;1.00;;;;;9.56;70.98;102451.69;4976147;28;47467;-80
2023/03/28 01:29:38;;;;;;;;;1.75;1.75;;;;;9.57;71.45;102456.13;4958580;28;45374;-80
2023/03/28 01:32:10;;;;;;;;;2.00;1.00;;;;;9.57;71.20;102448.22;4966242;28;45246;-81
2023/03/28 01:34:57;;;;;;;;;2.75;1.50;;;;;9.57;70.57;102444.69;4956824;28;45551;-81
2023/03/28 01:37:31;;;;;;;;;0.75;0.50;;;;;9.56;71.11;102434.97;4973905;28;46696;-81
2023/03/28 01:40:10;;;;;;;;;1.25;1.25;;;;;9.54;71.16;102424.38;4958635;28;45419;-79
2023/03/28 01:42:53;;;;;;;;;1.00;1.00;;;;;9.52;71.05;102422.50;4975704;28;45264;-81
2023/03/28 01:45:35;;;;;;;;;1.00;1.00;;;;;9.47;71.25;102406.47;4970790;28;45409;-80
2023/03/28 01:48:06;;;;;;;;;2.50;1.00;;;;;9.45;71.27;102395.88;4976720;28;47478;-81
2023/03/28 01:50:38;;;;;;;;;1.00;1.00;;;;;9.45;71.34;102395.88;4960411;28;45319;-80
2023/03/28 01:53:21;;;;;;;;;0.00;0.00;;;;;9.45;71.16;102393.25;4976361;28;45260;-80
2023/03/28 01:56:17;;;;;;;;;2.00;1.00;;;;;9.44;70.20;102402.00;4957485;28;45256;-80
2023/03/28 01:58:46;;;;;;;;;1.00;1.00;;;;;9.44;70.51;102401.09;4962000;28;47482;-80
2023/03/28 02:01:35;;;;;;;;;0.50;0.00;;;;;9.42;70.01;102402.75;4945003;28;45417;-80
2023/03/28 02:04:06;;;;;;;;;1.00;1.00;;;;;9.42;69.54;102402.75;4961929;28;45477;-80
2023/03/28 02:06:34;;;;;;;;;1.00;1.00;;;;;9.44;69.49;102406.38;4959985;28;45477;-80
2023/03/28 02:09:01;;;;;;;;;3.00;1.00;;;;;9.44;69.28;102404.63;4960987;28;46797;-80
2023/03/28 02:11:27;;;;;;;;;0.50;0.50;;;;;9.43;69.31;102394.94;4978420;28;45263;-79
2023/03/28 02:13:57;;;;;;;;;2.00;0.00;;;;;9.42;69.43;102402.75;4962157;28;63940;-80
2023/03/28 02:16:23;;;;;;;;;1.00;0.75;;;;;9.41;69.50;102400.97;4960231;28;45366;-80
2023/03/28 02:18:53;;;;;;;;;0.50;0.50;;;;;9.38;69.29;102396.47;4951932;28;62028;-81
2023/03/28 02:21:24;;;;;;;;;2.00;0.25;;;;;9.40;69.41;102397.44;4957610;28;45256;-80
2023/03/28 02:23:51;;;;;;;;;2.00;1.25;;;;;9.41;69.79;102393.06;4979214;28;45405;-80
2023/03/28 02:26:18;;;;;;;;;1.00;1.00;;;;;9.43;69.64;102387.03;4960597;28;45680;-81
2023/03/28 02:28:45;;;;;;;;;1.00;1.00;;;;;9.44;69.84;102375.63;4957702;28;58556;-80
2023/03/28 02:31:12;;;;;;;;;2.00;0.00;;;;;9.46;69.86;102378.31;4952664;28;70180;-81
2023/03/28 02:33:44;;;;;;;;;1.50;1.00;;;;;9.47;70.10;102374.84;4945219;28;45380;-80
2023/03/28 02:36:21;;;;;;;;;3.75;0.25;;;;;9.50;70.03;102369.69;4960410;28;45515;-81
2023/03/28 02:38:54;;;;;;;;;1.25;1.00;;;;;9.54;70.01;102366.38;4978666;28;47603;-80
2023/03/28 02:41:34;;;;;;;;;1.00;1.00;;;;;9.61;70.03;102356.94;4977760;28;45532;-80
2023/03/28 02:44:06;;;;;;;;;3.00;1.75;;;;;9.65;70.12;102350.97;4978255;28;45361;-80
2023/03/28 02:46:56;;;;;;;;;2.75;2.00;;;;;9.68;70.12;102351.06;4978303;28;45307;-80
2023/03/28 02:49:40;;;;;;;;;1.00;1.00;;;;;9.73;70.29;102345.97;4976888;28;46489;-80
2023/03/28 02:52:39;;;;;;;;;1.75;1.00;;;;;9.77;70.00;102340.88;4978102;28;45175;-80
2023/03/28 02:55:21;;;;;;;;;1.00;1.00;;;;;9.86;69.42;102338.59;4977924;28;45315;-80
2023/03/28 02:58:14;;;;;;;;;1.25;1.00;;;;;9.91;69.46;102338.78;4961198;28;45284;-80
2023/03/28 03:00:40;;;;;;;;;0.50;0.50;;;;;9.93;69.30;102330.06;4957038;28;47422;-80
2023/03/28 03:03:10;;;;;;;;;1.25;1.00;;;;;9.96;68.63;102324.03;4954928;28;71777;-80
2023/03/28 03:05:36;;;;;;;;;1.00;1.00;;;;;9.97;68.17;102324.06;4941641;28;45387;-80
2023/03/28 03:08:01;;;;;;;;;2.00;0.75;;;;;9.99;67.84;102316.19;4972207;28;45586;-81
2023/03/28 03:10:27;;;;;;;;;1.00;1.00;;;;;10.05;68.13;102320.81;4976323;28;71290;-81
2023/03/28 03:12:53;;;;;;;;;1.00;1.00;;;;;10.07;67.97;102314.75;4977748;28;45399;-80
2023/03/28 03:15:18;;;;;;;;;1.00;1.00;;;;;10.07;67.83;102308.59;4977843;28;45401;-80
2023/03/28 03:17:44;;;;;;;;;1.25;0.00;;;;;10.10;67.78;102313.94;4960513;28;45358;-80
2023/03/28 03:20:10;;;;;;;;;1.75;0.75;;;;;10.11;68.22;102315.75;4960543;28;46896;-81
2023/03/28 03:22:35;;;;;;;;;1.00;1.00;;;;;10.09;68.04;102307.78;4960726;28;45302;-80
2023/03/28 03:25:05;;;;;;;;;1.00;1.00;;;;;10.11;67.87;102300.81;4956437;28;45192;-81
2023/03/28 03:27:31;;;;;;;;;2.50;1.50;;;;;10.11;67.76;102299.91;4929138;28;45284;-81
2023/03/28 03:29:57;;;;;;;;;3.00;1.50;;;;;10.06;67.90;102289.19;4959652;28;46398;-80
2023/03/28 03:32:22;;;;;;;;;1.00;1.00;;;;;10.02;68.21;102284.66;4954866;28;45343;-80
2023/03/28 03:34:47;;;;;;;;;3.00;2.00;;;;;9.96;68.36;102295.88;4978171;28;58344;-80
2023/03/28 03:37:13;;;;;;;;;3.75;1.00;;;;;9.92;68.36;102291.34;4956790;28;62234;-80
2023/03/28 03:39:39;;;;;;;;;2.00;1.75;;;;;9.90;68.71;102286.81;4975364;28;46554;-80
2023/03/28 03:42:04;;;;;;;;;2.00;2.00;;;;;9.89;68.96;102295.59;4960105;28;45347;-80
2023/03/28 03:44:30;;;;;;;;;1.00;1.00;;;;;9.88;69.05;102293.78;4977522;28;45464;-80
2023/03/28 03:46:56;;;;;;;;;3.00;2.00;;;;;9.85;69.07;102291.94;4960257;28;45460;-80
2023/03/28 03:49:21;;;;;;;;;2.00;2.00;;;;;9.81;69.69;102297.06;4968412;28;45651;-80
2023/03/28 03:51:47;;;;;;;;;1.00;1.00;;;;;9.76;69.78;102291.59;4977439;28;45565;-81
2023/03/28 03:54:12;;;;;;;;;1.25;1.25;;;;;9.71;69.80;102290.53;4977419;28;45270;-80
2023/03/28 03:56:38;;;;;;;;;1.00;1.00;;;;;9.67;70.29;102291.25;4977470;28;45294;-80
2023/03/28 03:59:03;;;;;;;;;1.75;1.75;;;;;9.63;70.35;102289.31;4976345;28;71993;-80
2023/03/28 04:01:29;;;;;;;;;1.00;1.00;;;;;9.58;70.73;102288.25;4976459;28;45449;-80
2023/03/28 04:03:55;;;;;;;;;2.75;1.00;;;;;9.54;71.19;102295.16;4980261;28;45429;-81
2023/03/28 04:06:20;;;;;;;;;1.00;1.00;;;;;9.52;71.28;102299.47;4977942;28;45487;-80
2023/03/28 04:08:46;;;;;;;;;3.25;1.00;;;;;9.51;71.46;102286.22;4976758;28;46733;-80
2023/03/28 04:11:11;;;;;;;;;2.00;2.00;;;;;9.51;71.78;102291.50;4956010;28;69847;-80
2023/03/28 04:13:36;;;;;;;;;2.25;1.00;;;;;9.51;71.90;102286.22;4975628;28;59169;-80
2023/03/28 04:16:02;;;;;;;;;1.75;1.75;;;;;9.50;72.26;102284.44;4976252;28;57219;-80
2023/03/28 04:18:28;;;;;;;;;7.00;1.00;;;;;9.50;72.39;102287.97;4977120;28;46186;-81
2023/03/28 04:20:55;;;;;;;;;3.25;2.00;;;;;9.50;72.67;102280.06;4977081;28;45388;-80
2023/03/28 04:23:24;;;;;;;;;2.00;1.50;;;;;9.48;72.81;102275.53;4976704;28;45436;-80
2023/03/28 04:25:54;;;;;;;;;2.00;2.00;;;;;9.47;72.98;102273.75;4977011;28;45365;-81
2023/03/28 04:28:20;;;;;;;;;3.00;1.25;;;;;9.45;72.85;102269.34;4976355;28;47363;-80
2023/03/28 04:30:45;;;;;;;;;3.25;1.00;;;;;9.45;72.90;102265.81;4957989;28;45444;-80
2023/03/28 04:33:10;;;;;;;;;1.75;1.75;;;;;9.46;72.78;102270.22;4975689;28;45417;-80
2023/03/28 04:35:36;;;;;;;;;1.50;1.50;;;;;9.46;72.92;102259.69;4976354;28;59284;-81
2023/03/28 04:38:01;;;;;;;;;2.00;1.25;;;;;9.48;73.14;102276.47;4973866;28;46315;-80
2023/03/28 04:40:28;;;;;;;;;2.00;2.00;;;;;9.48;73.14;102272.91;4976288;28;50900;-81
2023/03/28 04:42:53;;;;;;;;;2.00;2.00;;;;;9.46;73.27;102270.22;4976592;28;45523;-81
2023/03/28 04:45:19;;;;;;;;;1.00;1.00;;;;;9.48;72.79;102271.19;4976557;28;45191;-81
2023/03/28 04:47:44;;;;;;;;;2.50;1.75;;;;;9.49;72.60;102270.34;4953966;28;47163;-81
2023/03/28 04:50:11;;;;;;;;;2.00;2.00;;;;;9.50;72.83;102280.06;4975297;28;45790;-81
2023/03/28 04:52:37;;;;;;;;;2.50;1.00;;;;;9.50;73.14;102272.16;4939718;28;45940;-85
2023/03/28 04:55:03;;;;;;;;;3.00;2.00;;;;;9.52;72.68;102274.84;4951416;28;45445;-78
2023/03/28 04:57:29;;;;;;;;;1.75;1.75;;;;;9.57;72.92;102270.63;4970471;28;47318;-77
2023/03/28 04:59:54;;;;;;;;;1.00;1.00;;;;;9.58;73.11;102267.16;4953499;28;45578;-81
2023/03/28 05:02:20;;;;;;;;;3.00;1.50;;;;;9.61;72.54;102278.72;4945419;28;45386;-85
2023/03/28 05:04:46;;;;;;;;;2.25;1.75;;;;;9.59;73.06;102272.50;4939437;28;45585;-82
2023/03/28 05:07:11;;;;;;;;;3.00;3.00;;;;;9.62;72.70;102271.72;4971844;28;45820;-84
2023/03/28 05:09:36;;;;;;;;;2.00;2.00;;;;;9.59;72.48;102277.78;4972296;28;45487;-84
2023/03/28 05:12:02;;;;;;;;;2.00;2.00;;;;;9.57;72.38;102275.91;4949565;28;63627;-83
2023/03/28 05:14:27;;;;;;;;;4.00;2.00;;;;;9.53;72.17;102263.44;4955599;28;45594;-83
2023/03/28 05:16:53;;;;;;;;;1.00;1.00;;;;;9.54;72.24;102274.06;4958367;28;69605;-82
2023/03/28 05:19:19;;;;;;;;;2.25;2.25;;;;;9.51;72.47;102267.78;4977960;28;45608;-82
2023/03/28 05:21:45;;;;;;;;;4.00;2.00;;;;;9.53;72.37;102271.34;4979375;28;45310;-82
2023/03/28 05:24:10;;;;;;;;;3.00;2.50;;;;;9.52;72.71;102269.56;4977877;28;45553;-79
2023/03/28 05:26:35;;;;;;;;;2.00;2.00;;;;;9.51;72.68;102270.41;4977387;28;46562;-79
2023/03/28 05:29:01;;;;;;;;;4.00;2.75;;;;;9.48;72.96;102270.28;4978304;28;45499;-79
2023/03/28 05:31:29;;;;;;;;;2.25;2.25;;;;;9.49;73.28;102273.00;4957440;28;65559;-77
2023/03/28 05:33:54;;;;;;;;;6.00;2.00;;;;;9.50;73.34;102277.41;4976545;28;45582;-78
2023/03/28 05:36:19;;;;;;;;;3.00;3.00;;;;;9.51;73.40;102270.41;4972403;28;68258;-78
2023/03/28 05:38:45;;;;;;;;;6.75;2.75;;;;;9.51;73.47;102278.31;4965850;28;45460;-78
2023/03/28 05:41:10;;;;;;;;;2.25;2.00;;;;;9.51;73.58;102275.69;4972276;28;45488;-78
2023/03/28 05:43:36;;;;;;;;;3.50;1.50;;;;;9.52;73.81;102269.56;4963150;28;51467;-77
2023/03/28 05:46:01;;;;;;;;;2.25;2.00;;;;;9.54;73.62;102273.19;4965428;28;67998;-78
2023/03/28 05:48:26;;;;;;;;;6.00;3.00;;;;;9.53;73.72;102272.25;4965666;28;45357;-78
2023/03/28 05:50:52;;;;;;;;;2.00;2.00;;;;;9.56;73.49;102280.28;4973499;28;45375;-78
2023/03/28 05:53:17;;;;;;;;;2.00;2.00;;;;;9.59;73.69;102274.25;4976966;28;45390;-77
2023/03/28 05:55:42;;;;;;;;;3.00;2.50;;;;;9.59;73.64;102277.78;4975780;28;46441;-77
2023/03/28 05:58:08;;;;;;;;;5.00;2.25;;;;;9.60;73.64;102276.94;4962796;28;45405;-78
2023/03/28 06:00:33;;;;;;;;;3.50;2.25;;;;;9.63;73.75;102268.22;4952973;28;45445;-79
2023/03/28 06:02:59;;;;;;;;;4.50;4.00;;;;;9.64;73.98;102273.59;4953502;28;48772;-78
2023/03/28 06:05:25;;;;;;;;;7.00;3.00;;;;;9.64;74.05;102270.94;4966212;28;47414;-77
2023/03/28 06:07:50;;;;;;;;;2.25;2.25;;;;;9.69;74.25;102279.00;4970799;28;45346;-80
2023/03/28 06:10:17;;;;;;;;;3.25;3.25;;;;;9.71;74.39;102288.78;4958760;28;61386;-81
2023/03/28 06:12:42;;;;;;;;;4.00;4.00;;;;;9.73;74.33;102282.66;4961496;28;46109;-77
2023/03/28 06:15:09;;;;;;;;;4.75;2.00;;;;;9.77;74.41;102290.75;4970433;28;46704;-78
2023/03/28 06:17:34;;;;;;;;;3.00;2.50;;;;;9.80;73.94;102296.16;4977172;28;45616;-77
2023/03/28 06:19:59;;;;;;;;;3.00;3.00;;;;;9.82;74.44;102288.28;4975328;28;45377;-78
2023/03/28 06:22:25;;;;;;;;;8.00;4.00;;;;;9.84;74.61;102290.13;4968458;28;56107;-78
2023/03/28 06:24:51;;;;;;;;;7.75;3.25;;;;;9.88;74.80;102288.53;4965094;28;47213;-79
2023/03/28 06:27:16;;;;;;;;;3.50;3.50;;;;;9.89;74.58;102290.31;4952309;28;45527;-79
2023/03/28 06:29:42;;;;;;;;;4.00;4.00;;;;;9.92;74.64;102288.69;4964980;28;49923;-79
2023/03/28 06:32:07;;;;;;;;;1.50;1.50;;;;;9.97;74.61;102292.41;4967755;28;55819;-79
2023/03/28 06:34:33;;;;;;;;;3.00;3.00;;;;;10.01;74.65;102296.03;4972289;28;45730;-76
2023/03/28 06:36:59;;;;;;;;;3.25;3.25;;;;;10.03;74.40;102288.19;4977570;28;66623;-78
2023/03/28 06:39:25;;;;;;;;;4.00;2.25;;;;;10.06;74.37;102298.84;4966620;28;45552;-76
2023/03/28 06:41:50;;;;;;;;;5.00;3.75;;;;;10.08;74.13;102299.81;4967025;28;63884;-77
2023/03/28 06:44:15;;;;;;;;;5.75;3.25;;;;;10.10;74.21;102296.38;4971294;28;56667;-77
2023/03/28 06:46:41;;;;;;;;;6.00;4.00;;;;;10.11;74.10;102292.88;4973479;28;56128;-77
2023/03/28 06:49:06;;;;;;;;;4.00;4.00;;;;;10.11;73.79;102299.91;4972470;28;45480;-78
2023/03/28 06:51:32;;;;;;;;;5.25;3.00;;;;;10.15;73.89;102293.91;4970711;28;45664;-76
2023/03/28 06:53:57;;;;;;;;;6.00;3.50;;;;;10.14;74.10;102292.13;4956956;28;46300;-76
2023/03/28 06:56:22;;;;;;;;;4.25;3.25;;;;;10.17;74.01;102287.84;4973930;28;58543;-77
2023/03/28 06:58:48;;;;;;;;;3.00;3.00;;;;;10.23;74.18;102287.19;4957665;28;45547;-76
2023/03/28 07:01:14;;;;;;;;;2.00;2.00;;;;;10.26;74.26;102287.31;4974167;28;45437;-76
2023/03/28 07:03:40;;;;;;;;;6.50;4.50;;;;;10.28;74.10;102283.00;4968532;28;46624;-75
2023/03/28 07:06:06;;;;;;;;;9.00;4.00;;;;;10.29;74.24;102266.31;4970934;28;45460;-77
2023/03/28 07:08:32;;;;;;;;;6.50;4.00;;;;;10.34;73.86;102264.72;4970434;28;45610;-78
2023/03/28 07:10:57;;;;;;;;;5.75;5.75;;;;;10.38;73.91;102261.31;4971485;28;45440;-76
2023/03/28 07:13:23;;;;;;;;;6.00;3.25;;;;;10.43;74.20;102249.19;4975373;28;45658;-76
2023/03/28 07:16:02;;;;;;;;;4.25;4.00;;;;;10.48;73.39;102247.59;4977214;28;45386;-76
2023/03/28 07:18:27;;;;;;;;;4.50;4.00;;;;;10.53;73.62;102244.22;4973436;28;46136;-78
2023/03/28 07:20:53;;;;;;;;;7.75;5.25;;;;;10.57;73.48;102239.09;4976914;28;45317;-78
2023/03/28 07:23:19;;;;;;;;;4.00;4.00;;;;;10.61;72.98;102242.75;4976723;28;47764;-77
2023/03/28 07:25:44;;;;;;;;;6.00;4.00;;;;;10.62;73.25;102245.44;4943821;28;45561;-77
2023/03/28 07:28:10;;;;;;;;;3.75;3.75;;;;;10.68;73.10;102277.31;4975217;28;45876;-76
2023/03/28 07:30:35;;;;;;;;;7.50;4.00;;;;;10.74;72.93;102263.41;4971575;28;63961;-77
2023/03/28 07:33:01;;;;;;;;;6.00;3.00;;;;;10.78;72.97;102257.41;4976126;28;46866;-77
2023/03/28 07:35:26;;;;;;;;;5.25;5.25;;;;;10.86;72.96;102268.22;4974981;28;63359;-76
2023/03/28 07:37:51;;;;;;;;;4.50;4.50;;;;;10.94;72.72;102280.84;4977063;28;45197;-77
2023/03/28 07:40:17;;;;;;;;;4.00;4.00;;;;;11.02;72.26;102276.72;4974011;28;56545;-78
2023/03/28 07:42:42;;;;;;;;;4.00;4.00;;;;;11.06;71.71;102268.88;4974513;28;46622;-78
2023/03/28 07:45:08;;;;;;;;;7.75;4.00;;;;;11.10;71.54;102270.75;4957992;28;66330;-77
2023/03/28 07:47:33;;;;;;;;;3.00;1.50;;;;;11.13;71.83;102276.13;4976638;28;45741;-77
2023/03/28 07:49:59;;;;;;;;;8.00;5.50;;;;;11.17;71.50;102272.75;4975348;28;60555;-76
2023/03/28 07:52:24;;;;;;;;;4.50;3.75;;;;;11.17;71.18;102276.28;4952738;28;47114;-77
2023/03/28 07:54:49;;;;;;;;;7.25;4.75;;;;;11.18;71.28;102274.53;4976221;28;55583;-76
2023/03/28 07:57:15;;;;;;;;;5.50;5.00;;;;;11.23;71.22;102287.03;4971523;28;45462;-77
2023/03/28 07:59:40;;;;;;;;;4.50;4.00;;;;;11.28;71.06;102288.09;4971701;28;45765;-75
2023/03/28 08:02:05;;;;;;;;;4.75;4.75;;;;;11.32;71.11;102288.19;4951762;28;63201;-76
2023/03/28 08:04:31;;;;;;;;;8.00;6.25;;;;;11.36;70.92;102293.63;4968602;28;46756;-77
2023/03/28 08:06:56;;;;;;;;;7.75;5.75;;;;;11.36;70.66;102275.13;4975110;28;46131;-77
2023/03/28 08:09:22;;;;;;;;;7.00;7.00;;;;;11.41;70.95;102281.44;4970278;28;45328;-78
2023/03/28 08:11:47;;;;;;;;;7.25;4.00;;;;;11.48;70.80;102285.19;4969675;28;61228;-78
2023/03/28 08:14:15;;;;;;;;;8.75;7.25;;;;;11.53;70.82;102280.91;4971760;28;45695;-78
2023/03/28 08:16:42;;;;;;;;;8.75;4.75;;;;;11.62;71.01;102273.28;4941770;28;45448;-79
2023/03/28 08:19:07;;;;;;;;;0.00;0.00;;;;;11.71;71.31;102264.69;4976092;28;45428;-79
2023/03/28 08:21:34;;;;;;;;;12.00;5.50;;;;;11.82;70.34;102275.63;4972704;28;47623;-79
2023/03/28 08:24:00;;;;;;;;;7.25;7.25;;;;;11.90;70.15;102282.94;4973403;28;45408;-77
2023/03/28 08:26:27;;;;;;;;;6.50;6.50;;;;;11.94;69.30;102278.63;4974799;28;45632;-77
2023/03/28 08:28:54;;;;;;;;;8.25;5.75;;;;;12.00;69.55;102273.50;4971915;28;45733;-78
2023/03/28 08:31:22;;;;;;;;;8.00;5.75;;;;;12.04;69.68;102263.06;4973592;28;47587;-77
2023/03/28 08:33:51;;;;;;;;;5.00;5.00;;;;;12.10;68.62;102261.44;4974616;28;45460;-77
2023/03/28 08:36:17;;;;;;;;;4.25;4.25;;;;;12.14;68.46;102281.81;4976431;28;45527;-78
2023/03/28 08:38:43;;;;;;;;;9.75;5.00;;;;;12.13;67.55;102277.38;4971412;28;45423;-77
2023/03/28 08:41:27;;;;;;;;;5.75;5.00;;;;;12.11;67.21;102279.13;4955213;28;46645;-77
2023/03/28 08:44:11;;;;;;;;;4.50;4.50;;;;;12.12;67.43;102280.91;4972729;28;47184;-77
2023/03/28 08:46:39;;;;;;;;;4.25;3.75;;;;;12.15;67.81;102266.00;4965717;28;45499;-77
2023/03/28 08:49:08;;;;;;;;;5.00;5.00;;;;;12.18;67.82;102266.06;4959777;28;45459;-77
2023/03/28 08:51:39;;;;;;;;;7.25;4.75;;;;;12.21;67.71;102266.16;4961472;28;46986;-77
2023/03/28 08:54:10;;;;;;;;;5.25;5.25;;;;;12.27;67.69;102262.78;4977482;28;45468;-77
2023/03/28 08:56:42;;;;;;;;;9.25;5.50;;;;;12.32;67.63;102259.41;4975987;28;45491;-77
2023/03/28 08:59:11;;;;;;;;;4.00;4.00;;;;;12.39;66.80;102252.50;4958867;28;45354;-80
2023/03/28 09:01:38;;;;;;;;;6.50;5.00;;;;;12.46;66.97;102257.09;5067445;22;46465;-79
2023/03/28 09:04:03;;;;;;;;;5.25;3.25;;;;;12.52;66.64;102251.09;5019665;28;45538;-78
2023/03/28 09:06:37;;;;;;;;;6.25;4.00;;;;;12.56;66.00;102232.63;5008850;28;45245;-79
2023/03/28 09:09:15;;;;;;;;;5.75;4.25;;;;;12.64;65.93;102250.50;4999640;28;45481;-80
2023/03/28 09:12:15;;;;;;;;;4.33;4.33;;;;;12.71;65.17;102244.50;5010997;28;46449;-79
2023/03/28 09:14:41;;;;;;;;;3.33;2.00;;;;;12.73;63.80;102242.75;4962743;28;45338;-78
2023/03/28 09:17:38;;;;;;;;;3.00;3.00;;;;;12.75;64.14;102249.91;5017814;28;45406;-79
2023/03/28 09:20:12;;;;;;;;;4.67;4.00;;;;;12.80;63.89;102247.38;5015460;28;45427;-79
2023/03/28 09:23:04;;;;;;;;;7.25;4.25;;;;;12.81;63.04;102239.44;4999648;28;46918;-79
2023/03/28 09:25:40;;;;;;;;;4.00;4.00;;;;;12.81;63.19;102247.41;4972422;28;45538;-78
2023/03/28 09:28:23;;;;;;;;;4.00;4.00;;;;;12.80;63.06;102235.00;4998383;28;45604;-78
2023/03/28 09:30:50;;;;;;;;;6.50;4.50;;;;;12.92;62.76;102250.31;5014323;28;45448;-78
2023/03/28 09:33:37;;;;;;;;;5.50;4.00;;;;;12.95;62.50;102234.50;4999759;28;58351;-78
2023/03/28 09:36:10;;;;;;;;;4.50;4.25;;;;;12.98;62.60;102225.69;5000178;28;45250;-79
2023/03/28 09:38:44;;;;;;;;;4.00;4.00;;;;;13.03;62.16;102222.28;4994585;28;45473;-78
2023/03/28 09:41:19;;;;;;;;;5.50;4.50;;;;;13.08;62.05;102206.50;4980152;28;45704;-78
2023/03/28 09:43:48;;;;;;;;;3.00;3.00;;;;;13.14;61.98;102216.34;4988883;28;47569;-78
2023/03/28 09:46:23;;;;;;;;;6.00;3.00;;;;;13.21;62.45;102197.03;5009602;28;45455;-79
2023/03/28 09:48:48;;;;;;;;;5.25;3.25;;;;;13.25;61.75;102202.50;5000784;28;45470;-78
2023/03/28 09:51:16;;;;;;;;;7.33;6.00;;;;;13.28;62.56;102197.25;4998844;28;45336;-78
2023/03/28 09:53:41;;;;;;;;;4.00;4.00;;;;;13.34;62.08;102201.81;5015942;28;46206;-77
2023/03/28 09:56:20;;;;;;;;;4.67;4.67;;;;;13.37;61.58;102188.63;5016586;28;45428;-78
2023/03/28 09:58:48;;;;;;;;;4.00;4.00;;;;;13.40;61.33;102195.72;4998550;28;47158;-76
2023/03/28 10:01:24;;;;;;;;;7.33;4.00;;;;;13.44;61.37;102187.88;5012152;28;45523;-79
2023/03/28 10:03:52;;;;;;;;;4.33;4.33;;;;;13.52;60.77;102198.63;5015073;28;46574;-78
2023/03/28 10:06:29;;;;;;;;;5.67;3.00;;;;;13.61;60.71;102182.91;4996785;28;45442;-79
2023/03/28 10:09:13;;;;;;;;;4.00;3.00;;;;;13.70;59.93;102183.09;5012717;28;45622;-77
2023/03/28 10:11:53;;;;;;;;;3.00;2.67;;;;;13.79;60.05;102174.41;5011281;28;46904;-79
2023/03/28 10:14:36;;;;;;;;;4.00;2.67;;;;;13.87;59.11;102183.44;5006805;28;47325;-78
2023/03/28 10:17:05;;;;;;;;;3.67;3.00;;;;;13.89;59.34;102174.59;4998005;28;45560;-77
2023/03/28 10:19:37;;;;;;;;;2.00;2.00;;;;;13.94;58.96;102172.03;5017529;28;46650;-76
2023/03/28 10:22:36;;;;;;;;;3.33;2.00;;;;;14.00;58.56;102165.94;4999962;28;45571;-77
2023/03/28 10:25:04;;;;;;;;;2.33;2.33;;;;;14.04;58.73;102162.50;4967569;28;47591;-76
2023/03/28 10:27:34;;;;;;;;;3.67;2.33;;;;;14.10;58.51;102162.59;4999479;28;45348;-76
2023/03/28 10:30:30;;;;;;;;;3.00;3.00;;;;;14.11;57.71;102170.63;5009238;28;45636;-76
2023/03/28 10:33:15;;;;;;;;;2.00;2.00;;;;;14.09;57.26;102168.78;4996483;28;45635;-76
2023/03/28 10:35:44;;;;;;;;;2.67;1.00;;;;;14.03;57.54;102164.25;5003909;28;47440;-76
2023/03/28 10:38:16;;;;;;;;;3.00;1.67;;;;;14.00;56.96;102157.97;5007151;28;45397;-77
2023/03/28 10:40:50;;;;;;;;;4.00;1.33;;;;;14.01;56.83;102157.09;4989044;28;45630;-77
2023/03/28 10:43:16;;;;;;;;;2.00;2.00;;;;;14.04;57.80;102165.16;5013911;28;45490;-77
2023/03/28 10:45:43;;;;;;;;;3.00;1.00;;;;;14.07;55.93;102146.63;4998891;28;47938;-77
2023/03/28 10:48:15;;;;;;;;;2.00;1.00;;;;;14.05;56.15;102143.91;4992763;28;45381;-78
2023/03/28 10:51:07;;;;;;;;;1.00;1.00;;;;;14.06;55.75;102135.09;4989667;28;45451;-78
2023/03/28 10:54:06;;;;;;;;;1.00;1.00;;;;;14.03;56.16;102139.47;5008636;28;45441;-78
2023/03/28 10:56:51;;;;;;;;;3.00;2.00;;;;;14.02;56.19;102135.91;5006675;28;46633;-78
2023/03/28 10:59:42;;;;;;;;;2.67;2.67;;;;;14.03;56.21;102135.03;5007655;28;45609;-79
2023/03/28 11:02:23;;;;;;;;;2.67;1.00;;;;;14.05;55.91;102132.41;5013557;28;45375;-78
2023/03/28 11:04:55;;;;;;;;;4.00;2.00;;;;;14.07;56.18;102125.38;4995813;28;45650;-78
2023/03/28 11:07:43;;;;;;;;;2.33;2.00;;;;;14.16;56.53;102136.13;5016303;28;47540;-80
2023/03/28 11:10:43;;;;;;;;;1.00;1.00;;;;;14.29;56.54;102127.53;4990994;28;45526;-79
2023/03/28 11:13:30;;;;;;;;;1.00;1.00;;;;;14.38;55.74;102111.72;4980483;28;45351;-77
2023/03/28 11:16:04;;;;;;;;;2.00;2.00;;;;;14.40;56.20;102112.63;5013521;28;45354;-80
2023/03/28 11:18:41;;;;;;;;;2.00;1.00;;;;;14.40;55.88;102109.97;5016713;28;47237;-79
2023/03/28 11:21:21;;;;;;;;;1.67;1.67;;;;;14.45;55.23;102112.72;5012875;28;45562;-79
2023/03/28 11:24:06;;;;;;;;;1.33;1.00;;;;;14.50;55.28;102110.16;4996958;28;45309;-77
2023/03/28 11:27:11;;;;;;;;;2.00;2.00;;;;;14.61;55.25;102109.44;4979809;28;45741;-78
2023/03/28 11:29:44;;;;;;;;;1.00;1.00;;;;;14.69;55.58;102106.88;4938152;28;46601;-78
2023/03/28 11:32:28;;;;;;;;;2.67;1.67;;;;;14.77;55.53;102093.72;5008589;28;45495;-78
2023/03/28 11:35:06;;;;;;;;;3.00;3.00;;;;;14.79;55.86;102094.63;5014117;28;45399;-78
2023/03/28 11:37:37;;;;;;;;;3.33;2.67;;;;;14.76;55.28;102086.63;4995590;28;45448;-78
2023/03/28 11:40:17;;;;;;;;;2.00;2.00;;;;;14.75;55.70;102077.72;4995906;28;47367;-78
2023/03/28 11:42:54;;;;;;;;;3.33;2.00;;;;;14.78;55.47;102077.78;4996734;28;45474;-77
2023/03/28 11:45:31;;;;;;;;;4.67;2.00;;;;;14.86;55.53;102067.22;5010508;28;45314;-78